• Join FlightAware (Why Join?)
  • Login
  • US Flag 
06:46PM EDT


 

Airport Tracker/Info


-or-


 

Live Flight TrackerFlight Track Log ✈ N520PK ✈ 07-Jul-2013 ✈ KCPS - KHBZ

Flight Track Log - Related Links

Times and Time Zones

All times are in EDT time to prevent confusion due to time zone crossing. See the N520PK flight status page for this flight to view local times or setup timezone preferences in your user account.

Time Position Orientation Groundspeed Altitude Reporting Facility
EDT Latitude Longitude Course Direction KTS MPH feet Rate Location/Type
06:43PM 38.5500 -90.1167 123° Southeast 120 138 1,200  Level Gateway (St. Louis) TRACON
06:44PM 38.5333 -90.0833 123° Southeast 118 136 1,800 600 Climbing Gateway (St. Louis) TRACON
06:45PM 38.5042 -90.0947 197° South 123 142 2,200 600 Climbing Kansas City Center
06:46PM 38.4736 -90.0939 179° South 116 133 2,900 600 Climbing Kansas City Center
06:47PM 38.4436 -90.0969 185° South 111 128 3,500 540 Climbing Kansas City Center
06:48PM 38.4175 -90.1194 214° Southwest 113 130 4,100 480 Climbing Kansas City Center
06:49PM 38.3925 -90.1397 212° Southwest 110 127 4,600 480 Climbing Kansas City Center
06:50PM 38.3661 -90.1594 210° Southwest 109 125 5,100 480 Climbing Kansas City Center
06:51PM 38.3339 -90.1822 209° Southwest 110 127 5,700 480 Climbing Kansas City Center
06:52PM 38.3053 -90.2003 206° Southwest 112 129 6,200 240 Climbing Kansas City Center
06:53PM 38.2761 -90.2217 210° Southwest 116 133 6,200  Level Kansas City Center
06:54PM 38.2428 -90.2447 209° Southwest 130 150 6,200  Level Kansas City Center
06:55PM 38.2081 -90.2683 208° Southwest 138 159 6,200  Level Kansas City Center
06:56PM 38.1728 -90.2919 208° Southwest 142 163 6,200  Level Kansas City Center
06:57PM 38.1306 -90.3197 207° Southwest 142 163 6,200 -60 Level Kansas City Center
06:58PM 38.0958 -90.3450 210° Southwest 143 165 6,100 -120 Descending Kansas City Center
06:59PM 38.0592 -90.3728 211° Southwest 152 175 6,000 -60 Descending Kansas City Center
07:00PM 38.0231 -90.4003 211° Southwest 151 174 6,000  Level Kansas City Center
07:01PM 37.9881 -90.4281 212° Southwest 149 171 6,000  Level Kansas City Center
07:02PM 37.9525 -90.4539 210° Southwest 147 169 6,000  Level Kansas City Center
07:03PM 37.9106 -90.4869 212° Southwest 148 170 6,000  Level Kansas City Center
07:04PM 37.8764 -90.5125 211° Southwest 145 167 6,000  Level Kansas City Center
07:05PM 37.8400 -90.5403 211° Southwest 149 171 6,000  Level Kansas City Center
07:06PM 37.8053 -90.5667 211° Southwest 148 170 6,000  Level Kansas City Center
07:07PM 37.7678 -90.5878 204° Southwest 148 170 6,000  Level Kansas City Center
07:08PM 37.7336 -90.6164 214° Southwest 147 169 6,000  Level Kansas City Center
07:09PM 37.6964 -90.6386 205° Southwest 148 170 6,000  Level Kansas City Center
07:10PM 37.6531 -90.6667 207° Southwest 148 170 6,000  Level Kansas City Center
07:11PM 37.6158 -90.6919 208° Southwest 149 171 6,000  Level Kansas City Center
07:13PM 37.5794 -90.7175 209° Southwest 150 173 6,000  Level Kansas City Center
07:14PM 37.5428 -90.7414 207° Southwest 149 171 6,000  Level Kansas City Center
07:15PM 37.5019 -90.7650 205° Southwest 148 170 6,000  Level Kansas City Center
07:16PM 37.4647 -90.7894 208° Southwest 149 171 6,000  Level Kansas City Center
07:17PM 37.4283 -90.8131 207° Southwest 148 170 6,000 -60 Level Kansas City Center
07:18PM 37.3900 -90.8367 206° Southwest 151 174 5,900 -60 Descending Kansas City Center
07:19PM 37.3522 -90.8636 210° Southwest 154 177 5,900 -60 Level Kansas City Center
07:20PM 37.3153 -90.8861 206° Southwest 150 173 5,800 -60 Descending Kansas City Center
07:21PM 37.2706 -90.9144 207° Southwest 149 171 5,800  Level Kansas City Center
07:22PM 37.2325 -90.9400 208° Southwest 152 175 5,800  Level Kansas City Center
07:23PM 37.1950 -90.9639 207° Southwest 151 174 5,800 60 Level Kansas City Center
07:24PM 37.1592 -90.9867 207° Southwest 149 171 6,000 60 Climbing Kansas City Center
07:25PM 37.1225 -91.0092 206° Southwest 146 168 6,000  Level Kansas City Center
07:26PM 37.0831 -91.0361 209° Southwest 149 171 6,000  Level Kansas City Center
07:27PM 37.0444 -91.0594 206° Southwest 152 175 6,000  Level Kansas City Center
07:28PM 37.0103 -91.0817 207° Southwest 146 168 6,000  Level Kansas City Center
07:29PM 36.9647 -91.1103 207° Southwest 151 174 6,000  Level Kansas City Center
07:30PM 36.9269 -91.1353 208° Southwest 153 176 6,000  Level Kansas City Center
07:31PM 36.8894 -91.1589 207° Southwest 152 175 6,000  Level Kansas City Center
07:32PM 36.8525 -91.1822 207° Southwest 148 170 6,000  Level Kansas City Center
07:33PM 36.8156 -91.2053 207° Southwest 148 170 6,000  Level Kansas City Center
07:34PM 36.7792 -91.2297 208° Southwest 149 171 6,000  Level Kansas City Center
07:35PM 36.7433 -91.2600 214° Southwest 152 175 6,000  Level Kansas City Center